Time;durP1;ratioP1;P1;durP2;ratioP2;P2;SDS_P1;SDS_P2;PMS_P1;PMS_P2;Temp;Humidity;BMP_temperature;BMP_pressure;BME280_temperature;BME280_humidity;BME280_pressure;Samples;Min_cycle;Max_cycle;Signal;HPM_P1;HPM_P2
2023/07/03 00:01:41;;;;;;;16.20;7.10;;;;;;;;;;5096170;28;20269;-74
2023/07/03 00:04:10;;;;;;;15.23;7.13;;;;;;;;;;5094920;28;20261;-74
2023/07/03 00:06:36;;;;;;;15.15;6.90;;;;;;;;;;5096435;28;20031;-74
2023/07/03 00:09:02;;;;;;;13.02;7.28;;;;;;;;;;5095241;28;20055;-74
2023/07/03 00:11:27;;;;;;;13.70;6.53;;;;;;;;;;5094796;28;20055;-73
2023/07/03 00:13:52;;;;;;;14.20;6.87;;;;;;;;;;5094332;28;20036;-73
2023/07/03 00:16:17;;;;;;;12.50;7.10;;;;;;;;;;5093372;28;20280;-74
2023/07/03 00:18:42;;;;;;;14.60;6.90;;;;;;;;;;5093435;28;20276;-74
2023/07/03 00:21:08;;;;;;;16.57;7.17;;;;;;;;;;5094703;28;20272;-74
2023/07/03 00:23:33;;;;;;;12.97;6.93;;;;;;;;;;5094999;28;20265;-73
2023/07/03 00:25:58;;;;;;;14.20;7.27;;;;;;;;;;5094303;28;20257;-73
2023/07/03 00:28:23;;;;;;;12.50;6.70;;;;;;;;;;5094491;28;20256;-74
2023/07/03 00:30:48;;;;;;;14.87;6.93;;;;;;;;;;5094507;28;20268;-74
2023/07/03 00:33:14;;;;;;;13.55;6.95;;;;;;;;;;5094445;28;20268;-74
2023/07/03 00:35:39;;;;;;;13.20;6.50;;;;;;;;;;5094937;28;20035;-74
2023/07/03 00:38:04;;;;;;;12.55;6.80;;;;;;;;;;5094318;28;20280;-74
2023/07/03 00:40:30;;;;;;;17.15;6.70;;;;;;;;;;5094404;28;20020;-74
2023/07/03 00:42:55;;;;;;;14.02;6.60;;;;;;;;;;5094903;28;20030;-74
2023/07/03 00:45:21;;;;;;;13.73;6.87;;;;;;;;;;5092960;28;20085;-74
2023/07/03 00:47:47;;;;;;;16.88;6.53;;;;;;;;;;5094237;28;20310;-73
2023/07/03 00:50:12;;;;;;;14.75;7.25;;;;;;;;;;5094482;28;20076;-73
2023/07/03 00:52:38;;;;;;;15.03;6.80;;;;;;;;;;5094241;28;20066;-74
2023/07/03 00:55:05;;;;;;;11.02;6.55;;;;;;;;;;5094950;28;20739;-73
2023/07/03 00:57:30;;;;;;;14.63;6.57;;;;;;;;;;5094015;28;20035;-74
2023/07/03 00:59:56;;;;;;;13.93;6.80;;;;;;;;;;5094054;28;20016;-74
2023/07/03 01:02:27;;;;;;;15.35;7.07;;;;;;;;;;5094003;28;20301;-73
2023/07/03 01:05:05;;;;;;;17.05;7.68;;;;;;;;;;5092803;28;20020;-71
2023/07/03 01:07:32;;;;;;;18.10;7.32;;;;;;;;;;5059202;28;988463;-73
2023/07/03 01:10:16;;;;;;;11.10;6.45;;;;;;;;;;5094838;28;20073;-73
2023/07/03 01:12:45;;;;;;;15.23;7.20;;;;;;;;;;5094951;28;20022;-73
2023/07/03 01:15:17;;;;;;;16.70;6.90;;;;;;;;;;5095621;28;20028;-73
2023/07/03 01:17:46;;;;;;;14.13;6.72;;;;;;;;;;5094967;28;20038;-73
2023/07/03 01:20:16;;;;;;;15.38;7.50;;;;;;;;;;5093403;28;20024;-73
2023/07/03 01:23:06;;;;;;;14.20;6.55;;;;;;;;;;5095033;28;20074;-73
2023/07/03 01:25:32;;;;;;;14.35;6.85;;;;;;;;;;5094589;28;20024;-73
2023/07/03 01:27:59;;;;;;;12.85;6.68;;;;;;;;;;5094513;28;20152;-74
2023/07/03 01:30:26;;;;;;;14.57;7.45;;;;;;;;;;5094502;28;20077;-73
2023/07/03 01:32:53;;;;;;;11.93;6.72;;;;;;;;;;5093273;28;20027;-73
2023/07/03 01:35:19;;;;;;;14.50;7.20;;;;;;;;;;5094379;28;20051;-73
2023/07/03 01:37:47;;;;;;;16.77;7.43;;;;;;;;;;5092484;28;20027;-74
2023/07/03 01:40:16;;;;;;;12.68;7.10;;;;;;;;;;5094370;28;20051;-73
2023/07/03 01:42:43;;;;;;;11.75;6.78;;;;;;;;;;5094280;28;20023;-74
2023/07/03 01:45:09;;;;;;;15.13;7.45;;;;;;;;;;5094218;28;20073;-73
2023/07/03 01:47:36;;;;;;;14.05;6.65;;;;;;;;;;5094171;28;20027;-74
2023/07/03 01:50:02;;;;;;;13.35;6.97;;;;;;;;;;5094321;28;20020;-74
2023/07/03 01:52:38;;;;;;;15.50;7.47;;;;;;;;;;5092955;28;20024;-74
2023/07/03 01:55:24;;;;;;;14.13;7.07;;;;;;;;;;5093973;28;20016;-74
2023/07/03 01:57:59;;;;;;;11.68;6.07;;;;;;;;;;5093349;28;20040;-74
2023/07/03 02:00:31;;;;;;;16.23;7.70;;;;;;;;;;5094035;28;20498;-74
2023/07/03 02:03:00;;;;;;;14.25;6.68;;;;;;;;;;5092619;28;20153;-73
2023/07/03 02:05:29;;;;;;;11.77;6.72;;;;;;;;;;5092686;28;20375;-74
2023/07/03 02:07:59;;;;;;;15.30;7.43;;;;;;;;;;5095151;28;20024;-75
2023/07/03 02:10:24;;;;;;;11.05;6.57;;;;;;;;;;5094368;28;20051;-73
2023/07/03 02:12:50;;;;;;;15.35;7.05;;;;;;;;;;5094222;28;20016;-73
2023/07/03 02:15:15;;;;;;;12.07;6.65;;;;;;;;;;5093544;28;20136;-73
2023/07/03 02:17:41;;;;;;;13.93;6.85;;;;;;;;;;5093422;28;20028;-73
2023/07/03 02:20:13;;;;;;;12.55;7.03;;;;;;;;;;5092185;28;20089;-72
2023/07/03 02:22:39;;;;;;;14.55;7.22;;;;;;;;;;5093505;28;20089;-74
2023/07/03 02:25:04;;;;;;;15.02;7.40;;;;;;;;;;5093503;28;20375;-74
2023/07/03 02:27:30;;;;;;;14.93;6.85;;;;;;;;;;5092149;28;20059;-74
2023/07/03 02:29:55;;;;;;;13.87;7.33;;;;;;;;;;5093397;28;20051;-74
2023/07/03 02:32:20;;;;;;;14.80;7.20;;;;;;;;;;5093354;28;20256;-74
2023/07/03 02:34:45;;;;;;;15.10;7.60;;;;;;;;;;5093513;28;20479;-74
2023/07/03 02:37:13;;;;;;;14.83;7.63;;;;;;;;;;5091919;28;20651;-73
2023/07/03 02:39:38;;;;;;;13.52;6.65;;;;;;;;;;5093276;28;20256;-74
2023/07/03 02:42:04;;;;;;;14.13;7.20;;;;;;;;;;5093545;28;20051;-74
2023/07/03 02:44:29;;;;;;;13.02;6.47;;;;;;;;;;5093227;28;20271;-74
2023/07/03 02:46:54;;;;;;;13.37;7.20;;;;;;;;;;5092899;28;20487;-74
2023/07/03 02:49:19;;;;;;;15.35;6.40;;;;;;;;;;5093056;28;20743;-74
2023/07/03 02:51:45;;;;;;;14.63;6.77;;;;;;;;;;5092902;28;20028;-74
2023/07/03 02:54:10;;;;;;;17.07;7.37;;;;;;;;;;5091711;28;20345;-74
2023/07/03 02:56:36;;;;;;;16.25;6.47;;;;;;;;;;5091683;28;20767;-73
2023/07/03 02:59:01;;;;;;;15.32;7.20;;;;;;;;;;5092978;28;20024;-74
2023/07/03 03:01:27;;;;;;;13.67;6.67;;;;;;;;;;5092989;28;20395;-74
2023/07/03 03:03:52;;;;;;;12.80;6.75;;;;;;;;;;5093150;28;20632;-74
2023/07/03 03:06:18;;;;;;;12.33;6.90;;;;;;;;;;5091780;28;20110;-74
2023/07/03 03:08:43;;;;;;;13.17;6.83;;;;;;;;;;5092666;28;20257;-75
2023/07/03 03:11:09;;;;;;;18.42;7.20;;;;;;;;;;5091957;28;20256;-73
2023/07/03 03:13:34;;;;;;;12.43;6.93;;;;;;;;;;5093102;28;20031;-74
2023/07/03 03:15:59;;;;;;;15.93;7.30;;;;;;;;;;5092739;28;20134;-74
2023/07/03 03:18:25;;;;;;;13.97;7.20;;;;;;;;;;5091497;28;20368;-74
2023/07/03 03:20:50;;;;;;;16.02;6.97;;;;;;;;;;5092840;28;20742;-74
2023/07/03 03:23:15;;;;;;;17.63;7.07;;;;;;;;;;5093092;28;20030;-74
2023/07/03 03:25:42;;;;;;;16.63;7.20;;;;;;;;;;5092758;28;20244;-74
2023/07/03 03:28:08;;;;;;;11.95;6.75;;;;;;;;;;5091803;28;20626;-74
2023/07/03 03:30:33;;;;;;;13.05;7.10;;;;;;;;;;5092822;28;20510;-75
2023/07/03 03:32:58;;;;;;;14.07;6.83;;;;;;;;;;5091495;28;20056;-74
2023/07/03 03:35:24;;;;;;;12.15;7.05;;;;;;;;;;5092615;28;20298;-73
2023/07/03 03:37:49;;;;;;;14.95;6.82;;;;;;;;;;5092789;28;20027;-73
2023/07/03 03:40:14;;;;;;;14.67;7.57;;;;;;;;;;5092611;28;20036;-73
2023/07/03 03:42:40;;;;;;;13.93;6.88;;;;;;;;;;5092660;28;20332;-74
2023/07/03 03:45:05;;;;;;;12.85;6.72;;;;;;;;;;5092593;28;20437;-74
2023/07/03 03:47:30;;;;;;;16.13;7.13;;;;;;;;;;5092653;28;20476;-74
2023/07/03 03:49:56;;;;;;;12.50;6.75;;;;;;;;;;5092330;28;20024;-74
2023/07/03 03:52:21;;;;;;;15.17;7.63;;;;;;;;;;5091253;28;20028;-74
2023/07/03 03:54:47;;;;;;;12.77;7.10;;;;;;;;;;5091326;28;20279;-76
2023/07/03 03:57:13;;;;;;;14.23;6.88;;;;;;;;;;5092475;28;20281;-74
2023/07/03 03:59:38;;;;;;;17.23;7.18;;;;;;;;;;5092349;28;20038;-74
2023/07/03 04:02:04;;;;;;;10.70;6.72;;;;;;;;;;5093980;28;20504;-74
2023/07/03 04:04:29;;;;;;;13.30;6.90;;;;;;;;;;5096508;28;20050;-75
2023/07/03 04:06:54;;;;;;;13.90;7.17;;;;;;;;;;5096728;28;20020;-73
2023/07/03 04:09:19;;;;;;;13.20;6.83;;;;;;;;;;5096072;28;20356;-74
2023/07/03 04:11:45;;;;;;;15.52;7.47;;;;;;;;;;5096114;28;20332;-74
2023/07/03 04:14:12;;;;;;;18.70;7.00;;;;;;;;;;5094840;28;20396;-74
2023/07/03 04:16:37;;;;;;;15.07;7.03;;;;;;;;;;5095921;28;20252;-74
2023/07/03 04:19:03;;;;;;;14.48;6.32;;;;;;;;;;5095938;28;20023;-74
2023/07/03 04:21:28;;;;;;;17.33;6.90;;;;;;;;;;5095923;28;20031;-75
2023/07/03 04:23:53;;;;;;;15.77;7.33;;;;;;;;;;5095786;28;20735;-74
2023/07/03 04:26:20;;;;;;;14.27;6.93;;;;;;;;;;5094458;28;20800;-74
2023/07/03 04:28:45;;;;;;;15.57;6.63;;;;;;;;;;5095948;28;20699;-74
2023/07/03 04:31:10;;;;;;;13.00;6.50;;;;;;;;;;5095587;28;20061;-74
2023/07/03 04:33:35;;;;;;;16.57;7.60;;;;;;;;;;5094671;28;20064;-74
2023/07/03 04:36:01;;;;;;;12.90;6.57;;;;;;;;;;5095519;28;20264;-74
2023/07/03 04:38:26;;;;;;;18.27;7.13;;;;;;;;;;5095583;28;20309;-75
2023/07/03 04:40:53;;;;;;;13.85;6.90;;;;;;;;;;5095821;28;20039;-73
2023/07/03 04:43:19;;;;;;;15.60;6.78;;;;;;;;;;5095461;28;20448;-75
2023/07/03 04:45:47;;;;;;;19.13;7.35;;;;;;;;;;5095214;28;20031;-74
2023/07/03 04:48:14;;;;;;;13.13;7.30;;;;;;;;;;5095085;28;20016;-74
2023/07/03 04:50:40;;;;;;;16.02;6.72;;;;;;;;;;5094179;28;20024;-74
2023/07/03 04:53:05;;;;;;;12.75;6.78;;;;;;;;;;5093750;28;20028;-75
2023/07/03 04:55:31;;;;;;;14.23;7.17;;;;;;;;;;5094774;28;20077;-74
2023/07/03 04:57:59;;;;;;;17.27;8.32;;;;;;;;;;5095361;28;20364;-74
2023/07/03 05:00:27;;;;;;;15.40;6.82;;;;;;;;;;5095274;28;20028;-75
2023/07/03 05:02:56;;;;;;;14.93;6.88;;;;;;;;;;5094872;28;20016;-74
2023/07/03 05:05:21;;;;;;;15.18;7.22;;;;;;;;;;5094936;28;20107;-76
2023/07/03 05:07:47;;;;;;;18.47;7.70;;;;;;;;;;5094537;28;20052;-75
2023/07/03 05:10:14;;;;;;;15.00;6.82;;;;;;;;;;5093612;28;20253;-73
2023/07/03 05:12:40;;;;;;;17.38;7.70;;;;;;;;;;5093655;28;20107;-74
2023/07/03 05:15:08;;;;;;;16.85;7.03;;;;;;;;;;5094870;28;20107;-73
2023/07/03 05:17:35;;;;;;;15.48;7.03;;;;;;;;;;5096377;28;20102;-80
2023/07/03 05:20:01;;;;;;;15.50;7.22;;;;;;;;;;5098662;28;20371;-78
2023/07/03 05:22:26;;;;;;;16.65;7.88;;;;;;;;;;5097989;28;20497;-79
2023/07/03 05:24:51;;;;;;;15.43;6.90;;;;;;;;;;5098639;28;20051;-79
2023/07/03 05:27:16;;;;;;;18.02;7.57;;;;;;;;;;5098517;28;20263;-79
2023/07/03 05:29:41;;;;;;;15.57;6.97;;;;;;;;;;5097994;28;20048;-78
2023/07/03 05:32:07;;;;;;;14.80;6.90;;;;;;;;;;5097774;28;20261;-78
2023/07/03 05:34:34;;;;;;;14.93;6.78;;;;;;;;;;5097586;28;20260;-77
2023/07/03 05:36:59;;;;;;;15.18;7.75;;;;;;;;;;5099621;28;20136;-77
2023/07/03 05:39:24;;;;;;;17.00;8.18;;;;;;;;;;5099176;28;20150;-77
2023/07/03 05:41:50;;;;;;;21.70;7.07;;;;;;;;;;5098376;28;20070;-77
2023/07/03 05:44:15;;;;;;;15.57;6.95;;;;;;;;;;5101873;28;20031;-77
2023/07/03 05:46:40;;;;;;;16.77;6.80;;;;;;;;;;5100180;28;20097;-77
2023/07/03 05:49:06;;;;;;;17.00;6.83;;;;;;;;;;5100004;28;20292;-78
2023/07/03 05:51:31;;;;;;;18.42;7.97;;;;;;;;;;5100627;28;20393;-78
2023/07/03 05:53:56;;;;;;;19.23;6.97;;;;;;;;;;5099788;28;20035;-78
2023/07/03 05:56:21;;;;;;;12.60;6.22;;;;;;;;;;5100836;28;20253;-77
2023/07/03 05:58:47;;;;;;;17.25;7.40;;;;;;;;;;5101507;28;20024;-78
2023/07/03 06:01:12;;;;;;;16.05;7.18;;;;;;;;;;5099557;28;20023;-78
2023/07/03 06:03:37;;;;;;;16.40;7.03;;;;;;;;;;5098941;28;20395;-78
2023/07/03 06:06:05;;;;;;;17.35;7.10;;;;;;;;;;5099655;28;20045;-77
2023/07/03 06:08:30;;;;;;;15.68;6.63;;;;;;;;;;5102195;28;20456;-79
2023/07/03 06:10:56;;;;;;;17.40;6.90;;;;;;;;;;5102255;28;20036;-79
2023/07/03 06:13:21;;;;;;;15.53;6.90;;;;;;;;;;5100579;28;20497;-78
2023/07/03 06:15:46;;;;;;;16.50;7.07;;;;;;;;;;5099068;28;20256;-78
2023/07/03 06:18:11;;;;;;;15.43;6.87;;;;;;;;;;5099205;28;20280;-79
2023/07/03 06:20:37;;;;;;;15.10;6.83;;;;;;;;;;5098593;28;20256;-78
2023/07/03 06:23:03;;;;;;;16.80;6.90;;;;;;;;;;5101355;28;20256;-78
2023/07/03 06:25:28;;;;;;;15.57;6.15;;;;;;;;;;5102598;28;20027;-78
2023/07/03 06:27:53;;;;;;;15.75;6.95;;;;;;;;;;5102920;28;20012;-78
2023/07/03 06:30:18;;;;;;;16.53;6.37;;;;;;;;;;5103663;28;20035;-79
2023/07/03 06:32:44;;;;;;;18.10;6.73;;;;;;;;;;5102666;28;20746;-79
2023/07/03 06:35:09;;;;;;;18.83;6.40;;;;;;;;;;5102943;28;20670;-79
2023/07/03 06:37:34;;;;;;;14.33;6.60;;;;;;;;;;5101685;28;20735;-78
2023/07/03 06:39:59;;;;;;;17.02;6.13;;;;;;;;;;5100062;28;20302;-78
2023/07/03 06:42:25;;;;;;;19.27;6.77;;;;;;;;;;5101205;28;20168;-78
2023/07/03 06:44:50;;;;;;;18.83;6.80;;;;;;;;;;5099265;28;20268;-77
2023/07/03 06:47:15;;;;;;;16.87;7.17;;;;;;;;;;5099522;28;20379;-78
2023/07/03 06:49:41;;;;;;;17.07;6.27;;;;;;;;;;5096904;28;20617;-77
2023/07/03 06:52:08;;;;;;;15.73;5.80;;;;;;;;;;5099063;28;20288;-78
2023/07/03 06:54:33;;;;;;;15.68;5.85;;;;;;;;;;5098554;28;20387;-79
2023/07/03 06:56:59;;;;;;;12.40;5.50;;;;;;;;;;5097462;28;20028;-79
2023/07/03 06:59:25;;;;;;;16.17;5.78;;;;;;;;;;5094966;28;20276;-79
2023/07/03 07:01:50;;;;;;;11.07;5.03;;;;;;;;;;5096919;28;20528;-79
2023/07/03 07:04:15;;;;;;;12.80;5.47;;;;;;;;;;5097548;28;20031;-80
2023/07/03 07:06:40;;;;;;;17.50;5.70;;;;;;;;;;5096277;28;20261;-86
2023/07/03 07:09:06;;;;;;;16.15;5.40;;;;;;;;;;5097602;28;20269;-80
2023/07/03 07:11:34;;;;;;;12.90;4.90;;;;;;;;;;5098018;28;20501;-81
2023/07/03 07:14:01;;;;;;;16.23;5.20;;;;;;;;;;5095807;28;20302;-80
2023/07/03 07:16:31;;;;;;;16.30;4.82;;;;;;;;;;5097397;28;20102;-80
2023/07/03 07:19:00;;;;;;;14.40;4.78;;;;;;;;;;5096496;28;20510;-80
2023/07/03 07:21:25;;;;;;;13.30;5.25;;;;;;;;;;5095379;28;20032;-79
2023/07/03 07:23:53;;;;;;;14.20;4.90;;;;;;;;;;5097419;28;20028;-79
2023/07/03 07:26:19;;;;;;;15.32;5.60;;;;;;;;;;5096555;28;20039;-78
2023/07/03 07:28:45;;;;;;;11.32;4.70;;;;;;;;;;5095384;28;20073;-79
2023/07/03 07:31:10;;;;;;;11.63;4.37;;;;;;;;;;5094886;28;20024;-79
2023/07/03 07:33:35;;;;;;;15.30;5.20;;;;;;;;;;5094955;28;20274;-79
2023/07/03 07:36:00;;;;;;;13.47;5.00;;;;;;;;;;5096523;28;20249;-79
2023/07/03 07:38:25;;;;;;;13.70;5.10;;;;;;;;;;5096237;28;20276;-80
2023/07/03 07:41:02;;;;;;;11.07;4.77;;;;;;;;;;5099824;28;20479;-79
2023/07/03 07:43:27;;;;;;;14.48;5.65;;;;;;;;;;5099306;28;20258;-79
2023/07/03 07:45:53;;;;;;;17.33;4.93;;;;;;;;;;5100458;28;20046;-79
2023/07/03 07:48:18;;;;;;;12.68;4.85;;;;;;;;;;5101311;28;20027;-79
2023/07/03 07:50:44;;;;;;;14.75;5.10;;;;;;;;;;5099201;28;20028;-79
2023/07/03 07:53:09;;;;;;;10.60;4.30;;;;;;;;;;5100548;28;20039;-79
2023/07/03 07:55:36;;;;;;;12.63;4.53;;;;;;;;;;5101533;28;20268;-79
2023/07/03 07:58:01;;;;;;;11.40;4.05;;;;;;;;;;5099338;28;20291;-80
2023/07/03 08:00:26;;;;;;;12.23;3.92;;;;;;;;;;5098953;28;20020;-79
2023/07/03 08:02:52;;;;;;;12.88;4.65;;;;;;;;;;5100863;28;20031;-79
2023/07/03 08:05:17;;;;;;;14.93;4.70;;;;;;;;;;5101458;28;20024;-79
2023/07/03 08:07:42;;;;;;;9.82;4.25;;;;;;;;;;5100826;28;20264;-80
2023/07/03 08:10:08;;;;;;;12.53;3.97;;;;;;;;;;5101216;28;20031;-79
2023/07/03 08:12:33;;;;;;;15.40;5.28;;;;;;;;;;5100224;28;20619;-79
2023/07/03 08:14:58;;;;;;;13.40;4.63;;;;;;;;;;5102175;28;20107;-80
2023/07/03 08:17:23;;;;;;;14.20;4.20;;;;;;;;;;5098727;28;20304;-80
2023/07/03 08:19:48;;;;;;;12.17;4.40;;;;;;;;;;5101583;28;20260;-79
2023/07/03 08:22:14;;;;;;;10.83;4.30;;;;;;;;;;5103853;28;20321;-79
2023/07/03 08:24:39;;;;;;;13.75;4.75;;;;;;;;;;5102235;28;20260;-80
2023/07/03 08:27:04;;;;;;;13.93;5.10;;;;;;;;;;5102453;28;20056;-79
2023/07/03 08:29:30;;;;;;;15.48;4.97;;;;;;;;;;5101188;28;20260;-80
2023/07/03 08:31:55;;;;;;;14.07;4.40;;;;;;;;;;5103087;28;20028;-80
2023/07/03 08:34:20;;;;;;;13.87;4.60;;;;;;;;;;5102024;28;20272;-80
2023/07/03 08:36:45;;;;;;;12.67;4.13;;;;;;;;;;5101919;28;20257;-79
2023/07/03 08:39:11;;;;;;;15.70;4.87;;;;;;;;;;5103153;28;20263;-79
2023/07/03 08:41:48;;;;;;;15.07;4.35;;;;;;;;;;5101351;28;20284;-80
2023/07/03 08:44:14;;;;;;;9.15;3.65;;;;;;;;;;5103550;28;20020;-80
2023/07/03 08:46:40;;;;;;;14.80;4.30;;;;;;;;;;5103887;28;20043;-78
2023/07/03 08:49:06;;;;;;;13.35;4.65;;;;;;;;;;5104710;28;20471;-79
2023/07/03 08:51:36;;;;;;;12.95;3.90;;;;;;;;;;5103772;28;20051;-79
2023/07/03 08:54:17;;;;;;;15.95;4.30;;;;;;;;;;5104193;28;20479;-80
2023/07/03 08:56:42;;;;;;;12.13;4.22;;;;;;;;;;5102994;28;20047;-80
2023/07/03 08:59:08;;;;;;;12.73;4.18;;;;;;;;;;5102617;28;20479;-79
2023/07/03 09:01:57;;;;;;;12.43;4.43;;;;;;;;;;5102529;28;20077;-79
2023/07/03 09:04:52;;;;;;;16.58;4.60;;;;;;;;;;5102413;28;20024;-79
2023/07/03 09:07:26;;;;;;;17.00;4.40;;;;;;;;;;5098799;28;20028;-78
2023/07/03 09:10:37;;;;;;;10.32;3.80;;;;;;;;;;5101001;28;20368;-79
2023/07/03 09:13:10;;;;;;;12.80;4.07;;;;;;;;;;5098578;28;20032;-79
2023/07/03 09:15:43;;;;;;;9.43;3.55;;;;;;;;;;5102035;28;20039;-79
2023/07/03 09:18:13;;;;;;;10.30;3.70;;;;;;;;;;5101759;28;20020;-78
2023/07/03 09:20:40;;;;;;;14.23;4.25;;;;;;;;;;5101900;28;20119;-79
2023/07/03 09:23:20;;;;;;;10.30;3.78;;;;;;;;;;5101020;28;20136;-77
2023/07/03 09:25:51;;;;;;;7.05;3.58;;;;;;;;;;5101662;28;20091;-78
2023/07/03 09:28:17;;;;;;;11.25;3.92;;;;;;;;;;5099673;28;20025;-79
2023/07/03 09:30:42;;;;;;;13.23;3.88;;;;;;;;;;5101370;28;20024;-78
2023/07/03 09:33:07;;;;;;;13.15;4.22;;;;;;;;;;5102984;28;20426;-78
2023/07/03 09:35:41;;;;;;;14.13;4.55;;;;;;;;;;5100700;28;20032;-79
2023/07/03 09:38:14;;;;;;;;;;;;;;;;;;5101290;28;20025;-79
2023/07/03 09:40:43;;;;;;;13.45;4.35;;;;;;;;;;5101535;28;19908;-78
2023/07/03 09:43:14;;;;;;;9.75;3.95;;;;;;;;;;5100597;28;20028;-78
2023/07/03 09:45:39;;;;;;;11.90;4.28;;;;;;;;;;5095645;28;20054;-78
2023/07/03 09:48:15;;;;;;;11.25;3.85;;;;;;;;;;5097787;28;20032;-77
2023/07/03 09:50:40;;;;;;;9.90;4.03;;;;;;;;;;5097028;28;20464;-78
2023/07/03 09:53:05;;;;;;;10.50;3.80;;;;;;;;;;5098130;28;20027;-79
2023/07/03 09:55:31;;;;;;;17.08;4.18;;;;;;;;;;5097723;28;20031;-77
2023/07/03 09:57:57;;;;;;;10.85;4.10;;;;;;;;;;5096823;28;20386;-78
2023/07/03 10:00:24;;;;;;;13.63;4.10;;;;;;;;;;5098541;28;20075;-78
2023/07/03 10:02:55;;;;;;;10.48;4.03;;;;;;;;;;5101005;28;20035;-78
2023/07/03 10:05:31;;;;;;;8.13;3.50;;;;;;;;;;5100703;28;20030;-78
2023/07/03 10:08:02;;;;;;;13.32;4.10;;;;;;;;;;5099816;28;20034;-78
2023/07/03 10:10:29;;;;;;;13.27;4.03;;;;;;;;;;5099929;28;20028;-78
2023/07/03 10:13:03;;;;;;;12.40;4.05;;;;;;;;;;5098498;28;20034;-78
2023/07/03 10:15:33;;;;;;;8.50;3.25;;;;;;;;;;5097970;28;20028;-79
2023/07/03 10:18:06;;;;;;;13.70;3.80;;;;;;;;;;5097439;28;20031;-79
2023/07/03 10:20:35;;;;;;;14.63;4.28;;;;;;;;;;5097556;28;20436;-78
2023/07/03 10:23:04;;;;;;;10.70;3.60;;;;;;;;;;5098845;28;20496;-78
2023/07/03 10:25:33;;;;;;;13.63;4.00;;;;;;;;;;5098524;28;20467;-79
2023/07/03 10:28:04;;;;;;;7.85;3.90;;;;;;;;;;5097827;28;20028;-78
2023/07/03 10:30:34;;;;;;;15.23;3.88;;;;;;;;;;5096204;28;20024;-79
2023/07/03 10:33:03;;;;;;;9.70;3.55;;;;;;;;;;5096771;28;20387;-78
2023/07/03 10:35:32;;;;;;;11.80;4.10;;;;;;;;;;5096996;28;20433;-78
2023/07/03 10:38:05;;;;;;;10.52;3.80;;;;;;;;;;5094443;28;20063;-79
2023/07/03 10:40:41;;;;;;;9.33;3.73;;;;;;;;;;5096829;28;20024;-80
2023/07/03 10:43:10;;;;;;;12.00;3.95;;;;;;;;;;5095902;28;20058;-78
2023/07/03 10:45:37;;;;;;;13.57;4.38;;;;;;;;;;5095985;28;20031;-79
2023/07/03 10:48:13;;;;;;;13.68;4.43;;;;;;;;;;5097214;28;20020;-79
2023/07/03 10:50:57;;;;;;;12.18;4.32;;;;;;;;;;5093814;28;20020;-78
2023/07/03 10:53:39;;;;;;;11.23;3.95;;;;;;;;;;5096251;28;20020;-79
2023/07/03 10:56:24;;;;;;;9.77;3.83;;;;;;;;;;5097223;28;20024;-78
2023/07/03 10:59:24;;;;;;;10.18;3.97;;;;;;;;;;5096389;28;20028;-79
2023/07/03 11:02:30;;;;;;;12.75;3.95;;;;;;;;;;5096989;28;20035;-79
2023/07/03 11:05:16;;;;;;;11.40;4.53;;;;;;;;;;5096987;28;20035;-80
2023/07/03 11:07:53;;;;;;;11.40;4.50;;;;;;;;;;5097067;28;20109;-79
2023/07/03 11:10:36;;;;;;;7.43;3.63;;;;;;;;;;5099350;28;20034;-80
2023/07/03 11:13:12;;;;;;;11.82;4.15;;;;;;;;;;5101607;28;20102;-80
2023/07/03 11:15:56;;;;;;;10.05;4.03;;;;;;;;;;5101851;28;20050;-79
2023/07/03 11:18:51;;;;;;;11.40;4.05;;;;;;;;;;5102628;28;20043;-79
2023/07/03 11:21:32;;;;;;;10.15;3.50;;;;;;;;;;5101458;28;20051;-77
2023/07/03 11:24:13;;;;;;;9.25;4.20;;;;;;;;;;5099974;28;20048;-78
2023/07/03 11:26:40;;;;;;;9.98;3.75;;;;;;;;;;5101355;28;20522;-79
2023/07/03 11:29:09;;;;;;;14.18;4.32;;;;;;;;;;5100694;28;20035;-78
2023/07/03 11:31:38;;;;;;;12.75;3.72;;;;;;;;;;5101839;28;20024;-77
2023/07/03 11:34:09;;;;;;;9.10;3.50;;;;;;;;;;5100321;28;20024;-78
2023/07/03 11:36:39;;;;;;;12.88;3.67;;;;;;;;;;5101907;28;20431;-79
2023/07/03 11:39:14;;;;;;;13.55;3.55;;;;;;;;;;5100465;28;20052;-78
2023/07/03 11:41:48;;;;;;;13.75;3.75;;;;;;;;;;5100334;28;20092;-79
2023/07/03 11:44:18;;;;;;;10.73;4.03;;;;;;;;;;5101579;28;20028;-79
2023/07/03 11:46:43;;;;;;;11.95;3.80;;;;;;;;;;5101244;28;20050;-79
2023/07/03 11:49:12;;;;;;;10.82;4.07;;;;;;;;;;5100803;28;20475;-79
2023/07/03 11:51:38;;;;;;;9.48;3.60;;;;;;;;;;5100374;28;20031;-80
2023/07/03 11:54:17;;;;;;;10.88;3.45;;;;;;;;;;5099452;28;20059;-79
2023/07/03 11:56:49;;;;;;;7.20;3.67;;;;;;;;;;5100439;28;20417;-78
2023/07/03 11:59:23;;;;;;;7.85;3.33;;;;;;;;;;5101528;28;20034;-79
2023/07/03 12:01:49;;;;;;;10.32;3.20;;;;;;;;;;5100278;28;20046;-79
2023/07/03 12:04:40;;;;;;;10.10;3.83;;;;;;;;;;5100667;28;20394;-79
2023/07/03 12:07:05;;;;;;;11.32;3.83;;;;;;;;;;5100377;28;20107;-78
2023/07/03 12:09:31;;;;;;;11.03;3.50;;;;;;;;;;5097735;28;20063;-79
2023/07/03 12:11:59;;;;;;;16.23;3.97;;;;;;;;;;5098635;28;20261;-79
2023/07/03 12:14:40;;;;;;;9.52;3.50;;;;;;;;;;5101128;28;20043;-79
2023/07/03 12:17:19;;;;;;;12.57;3.83;;;;;;;;;;5100012;28;20028;-79
2023/07/03 12:19:46;;;;;;;11.80;4.15;;;;;;;;;;5099109;28;20072;-79
2023/07/03 12:22:19;;;;;;;9.85;3.40;;;;;;;;;;5099632;28;20039;-80
2023/07/03 12:24:45;;;;;;;10.65;3.45;;;;;;;;;;5100259;28;20387;-78
2023/07/03 12:27:11;;;;;;;14.05;4.10;;;;;;;;;;5099539;28;20016;-79
2023/07/03 12:29:45;;;;;;;12.30;3.42;;;;;;;;;;5099778;28;20024;-80
2023/07/03 12:32:10;;;;;;;10.90;3.67;;;;;;;;;;5099722;28;20031;-80
2023/07/03 12:34:39;;;;;;;10.45;3.70;;;;;;;;;;5100185;28;20415;-79
2023/07/03 12:37:08;;;;;;;10.35;4.00;;;;;;;;;;5097932;28;20046;-79
2023/07/03 12:39:34;;;;;;;12.60;4.00;;;;;;;;;;5099844;28;20103;-79
2023/07/03 12:42:14;;;;;;;12.10;3.78;;;;;;;;;;5100434;28;20066;-79
2023/07/03 12:44:40;;;;;;;15.68;3.90;;;;;;;;;;5098833;28;20016;-79
2023/07/03 12:47:14;;;;;;;12.57;3.83;;;;;;;;;;5101409;28;20028;-79
2023/07/03 12:50:06;;;;;;;13.50;3.78;;;;;;;;;;5107414;28;20028;-80
2023/07/03 12:52:33;;;;;;;11.75;4.03;;;;;;;;;;5101849;28;20410;-79
2023/07/03 12:55:00;;;;;;;10.65;4.10;;;;;;;;;;5105889;28;20482;-78
2023/07/03 12:57:27;;;;;;;10.90;3.75;;;;;;;;;;5106123;28;20406;-80
2023/07/03 12:59:53;;;;;;;13.55;3.85;;;;;;;;;;5105069;28;20027;-78
2023/07/03 13:02:21;;;;;;;8.68;3.55;;;;;;;;;;5102952;28;20042;-78
2023/07/03 13:04:53;;;;;;;10.20;3.80;;;;;;;;;;5105336;28;20055;-79
2023/07/03 13:07:18;;;;;;;12.80;3.63;;;;;;;;;;5104646;28;20059;-78
2023/07/03 13:09:43;;;;;;;16.23;4.07;;;;;;;;;;5104561;28;20031;-79
2023/07/03 13:12:17;;;;;;;9.02;3.50;;;;;;;;;;5104538;28;20083;-79
2023/07/03 13:15:01;;;;;;;9.93;3.53;;;;;;;;;;5106990;28;20114;-80
2023/07/03 13:17:29;;;;;;;10.35;3.55;;;;;;;;;;5105350;28;20063;-79
2023/07/03 13:20:14;;;;;;;8.73;3.78;;;;;;;;;;5105000;28;20516;-80
2023/07/03 13:22:48;;;;;;;8.52;3.75;;;;;;;;;;5106335;28;20015;-79
2023/07/03 13:25:36;;;;;;;11.60;3.97;;;;;;;;;;5104792;28;20028;-79
2023/07/03 13:28:04;;;;;;;9.48;3.78;;;;;;;;;;5103717;28;20024;-79
2023/07/03 13:30:35;;;;;;;9.77;3.38;;;;;;;;;;5103762;28;20061;-79
2023/07/03 13:33:03;;;;;;;8.35;3.60;;;;;;;;;;5102425;28;20115;-79
2023/07/03 13:35:34;;;;;;;7.75;3.80;;;;;;;;;;5100812;28;20055;-78
2023/07/03 13:38:18;;;;;;;11.45;3.97;;;;;;;;;;5099000;28;20016;-78
2023/07/03 13:40:44;;;;;;;13.35;4.10;;;;;;;;;;5100937;28;20073;-79
2023/07/03 13:43:09;;;;;;;8.07;3.60;;;;;;;;;;5098016;28;20020;-79
2023/07/03 13:45:35;;;;;;;8.47;3.40;;;;;;;;;;5096950;28;20028;-80
2023/07/03 13:48:00;;;;;;;13.05;3.90;;;;;;;;;;5096633;28;20020;-80
2023/07/03 13:50:25;;;;;;;10.00;3.67;;;;;;;;;;5098892;28;20053;-80
2023/07/03 13:52:52;;;;;;;17.43;3.83;;;;;;;;;;5097344;28;20269;-79
2023/07/03 13:55:17;;;;;;;8.10;3.40;;;;;;;;;;5097587;28;20032;-79
2023/07/03 13:57:43;;;;;;;10.83;3.50;;;;;;;;;;5096567;28;20049;-79
2023/07/03 14:00:09;;;;;;;14.25;3.60;;;;;;;;;;5095859;28;20691;-79
2023/07/03 14:02:36;;;;;;;19.00;4.57;;;;;;;;;;5096040;28;20024;-79
2023/07/03 14:05:01;;;;;;;9.68;3.60;;;;;;;;;;5098357;28;20027;-79
2023/07/03 14:07:26;;;;;;;12.45;3.78;;;;;;;;;;5095284;28;20425;-80
2023/07/03 14:09:54;;;;;;;11.27;3.90;;;;;;;;;;5095975;28;20607;-79
2023/07/03 14:12:19;;;;;;;9.90;3.58;;;;;;;;;;5095953;28;20070;-80
2023/07/03 14:14:44;;;;;;;11.43;3.43;;;;;;;;;;5095479;28;20364;-80
2023/07/03 14:17:09;;;;;;;10.38;3.30;;;;;;;;;;5095709;28;20636;-81
2023/07/03 14:19:35;;;;;;;9.90;3.10;;;;;;;;;;5095208;28;20483;-79
2023/07/03 14:22:00;;;;;;;12.27;3.37;;;;;;;;;;5095572;28;20024;-81
2023/07/03 14:24:26;;;;;;;9.27;3.07;;;;;;;;;;5095922;28;20035;-78
2023/07/03 14:26:51;;;;;;;10.57;3.30;;;;;;;;;;5095187;28;20272;-81
2023/07/03 14:29:18;;;;;;;13.90;3.20;;;;;;;;;;5094543;28;20032;-81
2023/07/03 14:31:43;;;;;;;12.77;3.10;;;;;;;;;;5095950;28;20016;-80
2023/07/03 14:34:08;;;;;;;8.88;3.15;;;;;;;;;;5095570;28;20107;-79
2023/07/03 14:36:33;;;;;;;13.50;3.23;;;;;;;;;;5095401;28;20483;-79
2023/07/03 14:38:59;;;;;;;7.53;2.73;;;;;;;;;;5094868;28;20524;-80